sensor_id;sensor_type;location;lat;lon;timestamp;P1;durP1;ratioP1;P2;durP2;ratioP2
73585;SDS011;61865;50.232;18.614;2023-02-28T00:02:16;28.27;;;12.32;;
73585;SDS011;61865;50.232;18.614;2023-02-28T00:04:40;25.88;;;11.38;;
73585;SDS011;61865;50.232;18.614;2023-02-28T00:07:02;27.52;;;13.48;;
73585;SDS011;61865;50.232;18.614;2023-02-28T00:09:24;22.40;;;12.30;;
73585;SDS011;61865;50.232;18.614;2023-02-28T00:11:46;20.25;;;10.90;;
73585;SDS011;61865;50.232;18.614;2023-02-28T00:14:08;29.27;;;14.35;;
73585;SDS011;61865;50.232;18.614;2023-02-28T00:16:30;37.90;;;14.90;;
73585;SDS011;61865;50.232;18.614;2023-02-28T00:18:52;43.65;;;16.80;;
73585;SDS011;61865;50.232;18.614;2023-02-28T00:21:15;32.33;;;15.23;;
73585;SDS011;61865;50.232;18.614;2023-02-28T00:23:38;46.35;;;16.38;;
73585;SDS011;61865;50.232;18.614;2023-02-28T00:26:00;29.27;;;13.93;;
73585;SDS011;61865;50.232;18.614;2023-02-28T00:28:22;31.67;;;14.10;;
73585;SDS011;61865;50.232;18.614;2023-02-28T00:30:45;30.80;;;14.82;;
73585;SDS011;61865;50.232;18.614;2023-02-28T00:33:07;33.53;;;15.40;;
73585;SDS011;61865;50.232;18.614;2023-02-28T00:35:29;27.10;;;14.25;;
73585;SDS011;61865;50.232;18.614;2023-02-28T00:37:53;33.78;;;12.23;;
73585;SDS011;61865;50.232;18.614;2023-02-28T00:40:15;25.80;;;13.95;;
73585;SDS011;61865;50.232;18.614;2023-02-28T00:42:37;30.58;;;13.35;;
73585;SDS011;61865;50.232;18.614;2023-02-28T00:44:59;35.63;;;12.77;;
73585;SDS011;61865;50.232;18.614;2023-02-28T00:47:23;43.85;;;15.70;;
73585;SDS011;61865;50.232;18.614;2023-02-28T00:49:46;36.58;;;14.63;;
73585;SDS011;61865;50.232;18.614;2023-02-28T00:52:08;36.03;;;13.57;;
73585;SDS011;61865;50.232;18.614;2023-02-28T00:54:35;34.95;;;13.20;;
73585;SDS011;61865;50.232;18.614;2023-02-28T00:56:57;24.75;;;13.63;;
73585;SDS011;61865;50.232;18.614;2023-02-28T00:59:20;34.10;;;12.82;;
73585;SDS011;61865;50.232;18.614;2023-02-28T01:01:42;34.67;;;13.70;;
73585;SDS011;61865;50.232;18.614;2023-02-28T01:04:04;28.33;;;12.10;;
73585;SDS011;61865;50.232;18.614;2023-02-28T01:06:26;31.23;;;13.13;;
73585;SDS011;61865;50.232;18.614;2023-02-28T01:08:48;28.40;;;13.18;;
73585;SDS011;61865;50.232;18.614;2023-02-28T01:11:13;43.08;;;13.23;;
73585;SDS011;61865;50.232;18.614;2023-02-28T01:13:37;29.38;;;14.68;;
73585;SDS011;61865;50.232;18.614;2023-02-28T01:16:02;29.67;;;12.60;;
73585;SDS011;61865;50.232;18.614;2023-02-28T01:18:24;24.00;;;12.48;;
73585;SDS011;61865;50.232;18.614;2023-02-28T01:20:47;33.22;;;12.98;;
73585;SDS011;61865;50.232;18.614;2023-02-28T01:23:09;39.72;;;13.05;;
73585;SDS011;61865;50.232;18.614;2023-02-28T01:25:31;31.35;;;13.80;;
73585;SDS011;61865;50.232;18.614;2023-02-28T01:27:57;32.92;;;14.70;;
73585;SDS011;61865;50.232;18.614;2023-02-28T01:30:19;27.38;;;12.60;;
73585;SDS011;61865;50.232;18.614;2023-02-28T01:32:41;27.70;;;13.27;;
73585;SDS011;61865;50.232;18.614;2023-02-28T01:35:03;31.27;;;14.00;;
73585;SDS011;61865;50.232;18.614;2023-02-28T01:37:25;31.00;;;12.57;;
73585;SDS011;61865;50.232;18.614;2023-02-28T01:39:48;25.75;;;12.98;;
73585;SDS011;61865;50.232;18.614;2023-02-28T01:42:10;24.52;;;13.13;;
73585;SDS011;61865;50.232;18.614;2023-02-28T01:47:38;30.48;;;14.20;;
73585;SDS011;61865;50.232;18.614;2023-02-28T01:50:04;37.67;;;13.43;;
73585;SDS011;61865;50.232;18.614;2023-02-28T01:52:30;28.00;;;14.35;;
73585;SDS011;61865;50.232;18.614;2023-02-28T01:54:55;28.75;;;12.82;;
73585;SDS011;61865;50.232;18.614;2023-02-28T01:57:21;23.67;;;12.25;;
73585;SDS011;61865;50.232;18.614;2023-02-28T01:59:48;21.25;;;9.85;;
73585;SDS011;61865;50.232;18.614;2023-02-28T02:02:17;17.27;;;9.93;;
73585;SDS011;61865;50.232;18.614;2023-02-28T02:04:41;21.60;;;11.10;;
73585;SDS011;61865;50.232;18.614;2023-02-28T02:07:11;20.50;;;9.70;;
73585;SDS011;61865;50.232;18.614;2023-02-28T02:09:35;18.10;;;8.48;;
73585;SDS011;61865;50.232;18.614;2023-02-28T02:11:57;25.70;;;10.00;;
73585;SDS011;61865;50.232;18.614;2023-02-28T02:14:30;19.05;;;9.93;;
73585;SDS011;61865;50.232;18.614;2023-02-28T02:17:14;25.15;;;9.18;;
73585;SDS011;61865;50.232;18.614;2023-02-28T02:23:02;17.33;;;8.15;;
73585;SDS011;61865;50.232;18.614;2023-02-28T02:25:53;14.30;;;7.25;;
73585;SDS011;61865;50.232;18.614;2023-02-28T02:28:22;16.23;;;8.43;;
73585;SDS011;61865;50.232;18.614;2023-02-28T02:31:29;16.35;;;6.55;;
73585;SDS011;61865;50.232;18.614;2023-02-28T02:37:04;22.23;;;10.13;;
73585;SDS011;61865;50.232;18.614;2023-02-28T02:39:34;15.45;;;8.93;;
73585;SDS011;61865;50.232;18.614;2023-02-28T02:42:03;19.73;;;8.73;;
73585;SDS011;61865;50.232;18.614;2023-02-28T02:44:34;14.30;;;7.82;;
73585;SDS011;61865;50.232;18.614;2023-02-28T02:47:03;18.48;;;8.95;;
73585;SDS011;61865;50.232;18.614;2023-02-28T02:49:30;21.83;;;10.50;;
73585;SDS011;61865;50.232;18.614;2023-02-28T02:51:55;16.80;;;9.23;;
73585;SDS011;61865;50.232;18.614;2023-02-28T02:54:23;16.15;;;8.25;;
73585;SDS011;61865;50.232;18.614;2023-02-28T02:56:49;28.13;;;11.20;;
73585;SDS011;61865;50.232;18.614;2023-02-28T02:59:12;20.30;;;10.10;;
73585;SDS011;61865;50.232;18.614;2023-02-28T03:01:41;20.40;;;9.07;;
73585;SDS011;61865;50.232;18.614;2023-02-28T03:04:04;17.38;;;9.35;;
73585;SDS011;61865;50.232;18.614;2023-02-28T03:06:30;18.27;;;9.75;;
73585;SDS011;61865;50.232;18.614;2023-02-28T03:08:53;17.50;;;9.85;;
73585;SDS011;61865;50.232;18.614;2023-02-28T03:11:15;18.40;;;10.80;;
73585;SDS011;61865;50.232;18.614;2023-02-28T03:16:32;18.25;;;10.68;;
73585;SDS011;61865;50.232;18.614;2023-02-28T03:19:00;18.45;;;9.13;;
73585;SDS011;61865;50.232;18.614;2023-02-28T03:21:32;22.70;;;10.02;;
73585;SDS011;61865;50.232;18.614;2023-02-28T03:24:02;28.02;;;12.95;;
73585;SDS011;61865;50.232;18.614;2023-02-28T03:26:26;24.52;;;11.13;;
73585;SDS011;61865;50.232;18.614;2023-02-28T03:28:52;22.27;;;11.57;;
73585;SDS011;61865;50.232;18.614;2023-02-28T03:31:18;19.50;;;11.25;;
73585;SDS011;61865;50.232;18.614;2023-02-28T03:33:46;25.90;;;10.45;;
73585;SDS011;61865;50.232;18.614;2023-02-28T03:36:15;20.30;;;11.38;;
73585;SDS011;61865;50.232;18.614;2023-02-28T03:38:42;30.90;;;11.85;;
73585;SDS011;61865;50.232;18.614;2023-02-28T03:41:11;22.02;;;10.95;;
73585;SDS011;61865;50.232;18.614;2023-02-28T03:43:38;22.27;;;11.85;;
73585;SDS011;61865;50.232;18.614;2023-02-28T03:46:04;34.50;;;14.32;;
73585;SDS011;61865;50.232;18.614;2023-02-28T03:48:30;30.45;;;13.07;;
73585;SDS011;61865;50.232;18.614;2023-02-28T03:50:57;20.35;;;13.07;;
73585;SDS011;61865;50.232;18.614;2023-02-28T03:53:22;23.88;;;12.18;;
73585;SDS011;61865;50.232;18.614;2023-02-28T03:55:49;23.40;;;10.90;;
73585;SDS011;61865;50.232;18.614;2023-02-28T03:58:19;20.00;;;10.73;;
73585;SDS011;61865;50.232;18.614;2023-02-28T04:00:49;18.98;;;10.40;;
73585;SDS011;61865;50.232;18.614;2023-02-28T04:03:16;21.65;;;10.90;;
73585;SDS011;61865;50.232;18.614;2023-02-28T04:05:45;17.77;;;10.63;;
73585;SDS011;61865;50.232;18.614;2023-02-28T04:08:11;22.00;;;10.50;;
73585;SDS011;61865;50.232;18.614;2023-02-28T04:10:33;19.02;;;11.10;;
73585;SDS011;61865;50.232;18.614;2023-02-28T04:12:55;21.25;;;11.02;;
73585;SDS011;61865;50.232;18.614;2023-02-28T04:15:18;24.42;;;11.50;;
73585;SDS011;61865;50.232;18.614;2023-02-28T04:17:42;19.20;;;11.10;;
73585;SDS011;61865;50.232;18.614;2023-02-28T04:20:05;26.58;;;10.85;;
73585;SDS011;61865;50.232;18.614;2023-02-28T04:22:29;18.50;;;11.05;;
73585;SDS011;61865;50.232;18.614;2023-02-28T04:24:51;22.55;;;11.70;;
73585;SDS011;61865;50.232;18.614;2023-02-28T04:27:13;24.73;;;12.45;;
73585;SDS011;61865;50.232;18.614;2023-02-28T04:29:35;23.98;;;12.73;;
73585;SDS011;61865;50.232;18.614;2023-02-28T04:32:00;21.52;;;11.07;;
73585;SDS011;61865;50.232;18.614;2023-02-28T04:34:22;27.80;;;12.50;;
73585;SDS011;61865;50.232;18.614;2023-02-28T04:36:45;26.00;;;13.18;;
73585;SDS011;61865;50.232;18.614;2023-02-28T04:39:09;16.48;;;10.85;;
73585;SDS011;61865;50.232;18.614;2023-02-28T04:41:31;25.52;;;10.68;;
73585;SDS011;61865;50.232;18.614;2023-02-28T04:43:53;23.30;;;12.27;;
73585;SDS011;61865;50.232;18.614;2023-02-28T04:46:16;23.80;;;12.32;;
73585;SDS011;61865;50.232;18.614;2023-02-28T04:48:39;23.63;;;11.40;;
73585;SDS011;61865;50.232;18.614;2023-02-28T04:51:05;28.98;;;12.73;;
73585;SDS011;61865;50.232;18.614;2023-02-28T04:53:28;22.55;;;12.50;;
73585;SDS011;61865;50.232;18.614;2023-02-28T04:55:50;18.80;;;10.70;;
73585;SDS011;61865;50.232;18.614;2023-02-28T04:58:12;21.92;;;9.68;;
73585;SDS011;61865;50.232;18.614;2023-02-28T05:00:34;19.45;;;11.10;;
73585;SDS011;61865;50.232;18.614;2023-02-28T05:02:56;26.10;;;11.85;;
73585;SDS011;61865;50.232;18.614;2023-02-28T05:05:20;20.85;;;11.23;;
73585;SDS011;61865;50.232;18.614;2023-02-28T05:07:42;22.77;;;10.80;;
73585;SDS011;61865;50.232;18.614;2023-02-28T05:10:04;19.88;;;11.05;;
73585;SDS011;61865;50.232;18.614;2023-02-28T05:12:27;13.73;;;8.98;;
73585;SDS011;61865;50.232;18.614;2023-02-28T05:14:49;15.25;;;9.70;;
73585;SDS011;61865;50.232;18.614;2023-02-28T05:17:11;20.17;;;8.70;;
73585;SDS011;61865;50.232;18.614;2023-02-28T05:19:33;20.83;;;10.80;;
73585;SDS011;61865;50.232;18.614;2023-02-28T05:21:56;16.48;;;8.60;;
73585;SDS011;61865;50.232;18.614;2023-02-28T05:24:22;26.83;;;11.77;;
73585;SDS011;61865;50.232;18.614;2023-02-28T05:26:45;18.50;;;10.57;;
73585;SDS011;61865;50.232;18.614;2023-02-28T05:29:07;18.05;;;9.32;;
73585;SDS011;61865;50.232;18.614;2023-02-28T05:31:32;17.27;;;10.95;;
73585;SDS011;61865;50.232;18.614;2023-02-28T05:33:54;17.30;;;9.80;;
73585;SDS011;61865;50.232;18.614;2023-02-28T05:36:16;22.17;;;10.35;;
73585;SDS011;61865;50.232;18.614;2023-02-28T05:38:39;17.13;;;8.98;;
73585;SDS011;61865;50.232;18.614;2023-02-28T05:41:04;14.88;;;8.55;;
73585;SDS011;61865;50.232;18.614;2023-02-28T05:43:27;19.33;;;11.18;;
73585;SDS011;61865;50.232;18.614;2023-02-28T05:45:49;15.93;;;9.07;;
73585;SDS011;61865;50.232;18.614;2023-02-28T05:48:11;16.48;;;9.45;;
73585;SDS011;61865;50.232;18.614;2023-02-28T05:50:33;13.18;;;9.05;;
73585;SDS011;61865;50.232;18.614;2023-02-28T05:52:55;12.77;;;8.38;;
73585;SDS011;61865;50.232;18.614;2023-02-28T05:55:18;11.10;;;8.82;;
73585;SDS011;61865;50.232;18.614;2023-02-28T05:57:40;21.60;;;12.50;;
73585;SDS011;61865;50.232;18.614;2023-02-28T06:00:03;17.50;;;11.15;;
73585;SDS011;61865;50.232;18.614;2023-02-28T06:02:25;16.20;;;9.68;;
73585;SDS011;61865;50.232;18.614;2023-02-28T06:04:48;23.30;;;11.75;;
73585;SDS011;61865;50.232;18.614;2023-02-28T06:07:10;22.80;;;10.43;;
73585;SDS011;61865;50.232;18.614;2023-02-28T06:09:32;18.52;;;9.20;;
73585;SDS011;61865;50.232;18.614;2023-02-28T06:11:56;19.92;;;11.18;;
73585;SDS011;61865;50.232;18.614;2023-02-28T06:14:19;14.75;;;9.02;;
73585;SDS011;61865;50.232;18.614;2023-02-28T06:16:41;27.35;;;11.38;;
73585;SDS011;61865;50.232;18.614;2023-02-28T06:19:04;24.52;;;13.13;;
73585;SDS011;61865;50.232;18.614;2023-02-28T06:21:26;19.05;;;10.00;;
73585;SDS011;61865;50.232;18.614;2023-02-28T06:23:48;29.33;;;13.15;;
73585;SDS011;61865;50.232;18.614;2023-02-28T06:26:10;29.75;;;16.35;;
73585;SDS011;61865;50.232;18.614;2023-02-28T06:28:33;26.55;;;12.95;;
73585;SDS011;61865;50.232;18.614;2023-02-28T06:30:56;23.17;;;13.13;;
73585;SDS011;61865;50.232;18.614;2023-02-28T06:33:17;32.35;;;15.68;;
73585;SDS011;61865;50.232;18.614;2023-02-28T06:35:39;19.67;;;12.25;;
73585;SDS011;61865;50.232;18.614;2023-02-28T06:38:04;30.88;;;13.57;;
73585;SDS011;61865;50.232;18.614;2023-02-28T06:40:26;32.03;;;12.88;;
73585;SDS011;61865;50.232;18.614;2023-02-28T06:42:51;25.77;;;15.07;;
73585;SDS011;61865;50.232;18.614;2023-02-28T06:45:15;29.42;;;13.50;;
73585;SDS011;61865;50.232;18.614;2023-02-28T06:47:37;33.05;;;15.52;;
73585;SDS011;61865;50.232;18.614;2023-02-28T06:50:01;32.45;;;15.38;;
73585;SDS011;61865;50.232;18.614;2023-02-28T06:52:24;40.55;;;16.30;;
73585;SDS011;61865;50.232;18.614;2023-02-28T06:54:46;29.48;;;17.55;;
73585;SDS011;61865;50.232;18.614;2023-02-28T06:57:19;25.40;;;14.63;;
73585;SDS011;61865;50.232;18.614;2023-02-28T06:59:41;24.52;;;9.32;;
73585;SDS011;61865;50.232;18.614;2023-02-28T07:02:07;39.97;;;15.45;;
73585;SDS011;61865;50.232;18.614;2023-02-28T07:04:29;30.48;;;16.38;;
73585;SDS011;61865;50.232;18.614;2023-02-28T07:06:51;32.08;;;17.25;;
73585;SDS011;61865;50.232;18.614;2023-02-28T07:09:16;23.08;;;14.65;;
73585;SDS011;61865;50.232;18.614;2023-02-28T07:11:42;26.95;;;15.10;;
73585;SDS011;61865;50.232;18.614;2023-02-28T07:14:04;29.35;;;14.05;;
73585;SDS011;61865;50.232;18.614;2023-02-28T07:16:26;37.20;;;16.25;;
73585;SDS011;61865;50.232;18.614;2023-02-28T07:18:49;31.92;;;17.70;;
73585;SDS011;61865;50.232;18.614;2023-02-28T07:21:13;22.92;;;13.25;;
73585;SDS011;61865;50.232;18.614;2023-02-28T07:23:36;26.20;;;13.70;;
73585;SDS011;61865;50.232;18.614;2023-02-28T07:25:59;42.85;;;17.27;;
73585;SDS011;61865;50.232;18.614;2023-02-28T07:28:21;34.15;;;17.77;;
73585;SDS011;61865;50.232;18.614;2023-02-28T07:30:43;39.55;;;17.00;;
73585;SDS011;61865;50.232;18.614;2023-02-28T07:33:05;36.67;;;18.92;;
73585;SDS011;61865;50.232;18.614;2023-02-28T07:35:28;34.38;;;14.48;;
73585;SDS011;61865;50.232;18.614;2023-02-28T07:37:51;34.97;;;17.85;;
73585;SDS011;61865;50.232;18.614;2023-02-28T07:40:13;33.08;;;16.95;;
73585;SDS011;61865;50.232;18.614;2023-02-28T07:42:35;26.55;;;14.70;;
73585;SDS011;61865;50.232;18.614;2023-02-28T07:44:57;30.13;;;14.00;;
73585;SDS011;61865;50.232;18.614;2023-02-28T07:47:20;37.53;;;17.58;;
73585;SDS011;61865;50.232;18.614;2023-02-28T07:49:42;35.90;;;17.90;;
73585;SDS011;61865;50.232;18.614;2023-02-28T07:52:05;39.47;;;16.48;;
73585;SDS011;61865;50.232;18.614;2023-02-28T07:54:28;23.80;;;13.18;;
73585;SDS011;61865;50.232;18.614;2023-02-28T07:56:50;26.60;;;14.48;;
73585;SDS011;61865;50.232;18.614;2023-02-28T07:59:12;30.10;;;14.20;;
73585;SDS011;61865;50.232;18.614;2023-02-28T08:01:34;35.72;;;16.13;;
73585;SDS011;61865;50.232;18.614;2023-02-28T08:03:56;35.50;;;14.90;;
73585;SDS011;61865;50.232;18.614;2023-02-28T08:06:19;28.98;;;12.52;;
73585;SDS011;61865;50.232;18.614;2023-02-28T08:08:44;26.10;;;13.88;;
73585;SDS011;61865;50.232;18.614;2023-02-28T08:11:06;25.58;;;13.68;;
73585;SDS011;61865;50.232;18.614;2023-02-28T08:13:29;29.27;;;14.20;;
73585;SDS011;61865;50.232;18.614;2023-02-28T08:15:54;31.25;;;15.55;;
73585;SDS011;61865;50.232;18.614;2023-02-28T08:18:16;24.30;;;13.57;;
73585;SDS011;61865;50.232;18.614;2023-02-28T08:20:38;28.05;;;15.02;;
73585;SDS011;61865;50.232;18.614;2023-02-28T08:23:00;18.95;;;9.93;;
73585;SDS011;61865;50.232;18.614;2023-02-28T08:25:27;18.45;;;10.57;;
73585;SDS011;61865;50.232;18.614;2023-02-28T08:27:50;22.85;;;12.25;;
73585;SDS011;61865;50.232;18.614;2023-02-28T08:30:12;24.52;;;12.07;;
73585;SDS011;61865;50.232;18.614;2023-02-28T08:32:35;23.92;;;11.40;;
73585;SDS011;61865;50.232;18.614;2023-02-28T08:34:57;18.92;;;10.80;;
73585;SDS011;61865;50.232;18.614;2023-02-28T08:37:19;24.38;;;10.40;;
73585;SDS011;61865;50.232;18.614;2023-02-28T08:39:41;28.27;;;12.88;;
73585;SDS011;61865;50.232;18.614;2023-02-28T08:42:05;20.88;;;11.55;;
73585;SDS011;61865;50.232;18.614;2023-02-28T08:44:27;28.52;;;11.73;;
73585;SDS011;61865;50.232;18.614;2023-02-28T08:46:49;24.88;;;12.52;;
73585;SDS011;61865;50.232;18.614;2023-02-28T08:49:11;22.35;;;12.32;;
73585;SDS011;61865;50.232;18.614;2023-02-28T08:51:33;27.55;;;13.25;;
73585;SDS011;61865;50.232;18.614;2023-02-28T08:53:55;23.42;;;12.57;;
73585;SDS011;61865;50.232;18.614;2023-02-28T08:56:20;19.30;;;11.25;;
73585;SDS011;61865;50.232;18.614;2023-02-28T08:58:44;21.65;;;11.48;;
73585;SDS011;61865;50.232;18.614;2023-02-28T09:01:07;22.52;;;12.10;;
73585;SDS011;61865;50.232;18.614;2023-02-28T09:03:33;25.20;;;12.32;;
73585;SDS011;61865;50.232;18.614;2023-02-28T09:05:55;25.20;;;10.65;;
73585;SDS011;61865;50.232;18.614;2023-02-28T09:08:18;20.90;;;10.43;;
73585;SDS011;61865;50.232;18.614;2023-02-28T09:10:40;16.60;;;8.65;;
73585;SDS011;61865;50.232;18.614;2023-02-28T09:13:02;18.38;;;9.18;;
73585;SDS011;61865;50.232;18.614;2023-02-28T09:15:25;15.65;;;9.27;;
73585;SDS011;61865;50.232;18.614;2023-02-28T09:17:47;18.70;;;9.80;;
73585;SDS011;61865;50.232;18.614;2023-02-28T09:20:10;24.73;;;10.85;;
73585;SDS011;61865;50.232;18.614;2023-02-28T09:22:33;21.80;;;10.07;;
73585;SDS011;61865;50.232;18.614;2023-02-28T09:24:55;22.08;;;10.13;;
73585;SDS011;61865;50.232;18.614;2023-02-28T09:27:17;14.85;;;9.45;;
73585;SDS011;61865;50.232;18.614;2023-02-28T09:29:39;19.25;;;9.98;;
73585;SDS011;61865;50.232;18.614;2023-02-28T09:32:02;19.30;;;9.52;;
73585;SDS011;61865;50.232;18.614;2023-02-28T09:34:25;15.52;;;9.40;;
73585;SDS011;61865;50.232;18.614;2023-02-28T09:36:48;20.80;;;9.43;;
73585;SDS011;61865;50.232;18.614;2023-02-28T09:39:13;25.58;;;11.75;;
73585;SDS011;61865;50.232;18.614;2023-02-28T09:41:37;17.95;;;9.70;;
73585;SDS011;61865;50.232;18.614;2023-02-28T09:44:07;14.07;;;7.78;;
73585;SDS011;61865;50.232;18.614;2023-02-28T09:46:37;18.02;;;8.65;;
73585;SDS011;61865;50.232;18.614;2023-02-28T09:49:04;18.30;;;8.82;;
73585;SDS011;61865;50.232;18.614;2023-02-28T09:51:40;14.32;;;8.70;;
73585;SDS011;61865;50.232;18.614;2023-02-28T09:54:10;13.18;;;7.72;;
73585;SDS011;61865;50.232;18.614;2023-02-28T09:56:39;13.95;;;7.30;;
73585;SDS011;61865;50.232;18.614;2023-02-28T09:59:04;15.75;;;8.45;;
73585;SDS011;61865;50.232;18.614;2023-02-28T10:01:33;18.48;;;8.55;;
73585;SDS011;61865;50.232;18.614;2023-02-28T10:04:00;16.35;;;8.80;;
73585;SDS011;61865;50.232;18.614;2023-02-28T10:06:33;18.48;;;9.35;;
73585;SDS011;61865;50.232;18.614;2023-02-28T10:09:01;16.95;;;8.02;;
73585;SDS011;61865;50.232;18.614;2023-02-28T10:11:25;15.25;;;6.82;;
73585;SDS011;61865;50.232;18.614;2023-02-28T10:13:50;15.65;;;8.27;;
73585;SDS011;61865;50.232;18.614;2023-02-28T10:16:22;14.73;;;8.32;;
73585;SDS011;61865;50.232;18.614;2023-02-28T10:18:51;15.02;;;7.85;;
73585;SDS011;61865;50.232;18.614;2023-02-28T10:21:19;17.92;;;7.60;;
73585;SDS011;61865;50.232;18.614;2023-02-28T10:23:44;13.50;;;8.38;;
73585;SDS011;61865;50.232;18.614;2023-02-28T10:26:09;12.35;;;7.18;;
73585;SDS011;61865;50.232;18.614;2023-02-28T10:28:36;12.60;;;8.15;;
73585;SDS011;61865;50.232;18.614;2023-02-28T10:30:57;14.40;;;8.18;;
73585;SDS011;61865;50.232;18.614;2023-02-28T10:33:21;12.48;;;7.53;;
73585;SDS011;61865;50.232;18.614;2023-02-28T10:35:45;15.13;;;9.07;;
73585;SDS011;61865;50.232;18.614;2023-02-28T10:38:10;17.10;;;9.77;;
73585;SDS011;61865;50.232;18.614;2023-02-28T10:40:37;12.20;;;8.50;;
73585;SDS011;61865;50.232;18.614;2023-02-28T10:43:00;19.08;;;8.68;;
73585;SDS011;61865;50.232;18.614;2023-02-28T10:45:23;18.00;;;9.50;;
73585;SDS011;61865;50.232;18.614;2023-02-28T10:47:51;14.45;;;8.85;;
73585;SDS011;61865;50.232;18.614;2023-02-28T10:50:32;16.13;;;9.02;;
73585;SDS011;61865;50.232;18.614;2023-02-28T10:53:05;16.17;;;8.73;;
73585;SDS011;61865;50.232;18.614;2023-02-28T10:55:36;16.02;;;7.80;;
73585;SDS011;61865;50.232;18.614;2023-02-28T10:57:59;18.52;;;8.68;;
73585;SDS011;61865;50.232;18.614;2023-02-28T11:00:22;17.05;;;9.98;;
73585;SDS011;61865;50.232;18.614;2023-02-28T11:02:46;16.90;;;9.90;;
73585;SDS011;61865;50.232;18.614;2023-02-28T11:07:51;16.75;;;9.93;;
73585;SDS011;61865;50.232;18.614;2023-02-28T11:10:18;13.48;;;9.18;;
73585;SDS011;61865;50.232;18.614;2023-02-28T11:12:44;16.20;;;9.63;;
73585;SDS011;61865;50.232;18.614;2023-02-28T11:15:17;20.60;;;9.73;;
73585;SDS011;61865;50.232;18.614;2023-02-28T11:17:44;24.95;;;10.75;;
73585;SDS011;61865;50.232;18.614;2023-02-28T11:20:18;20.90;;;10.70;;
73585;SDS011;61865;50.232;18.614;2023-02-28T11:22:43;19.10;;;11.30;;
73585;SDS011;61865;50.232;18.614;2023-02-28T11:25:09;17.98;;;10.15;;
73585;SDS011;61865;50.232;18.614;2023-02-28T11:27:42;28.17;;;11.27;;
73585;SDS011;61865;50.232;18.614;2023-02-28T11:30:22;22.60;;;11.40;;
73585;SDS011;61865;50.232;18.614;2023-02-28T11:32:58;21.42;;;11.35;;
73585;SDS011;61865;50.232;18.614;2023-02-28T11:35:23;19.73;;;12.05;;
73585;SDS011;61865;50.232;18.614;2023-02-28T11:37:48;23.45;;;11.30;;
73585;SDS011;61865;50.232;18.614;2023-02-28T11:40:12;19.17;;;10.85;;
73585;SDS011;61865;50.232;18.614;2023-02-28T11:42:39;25.40;;;11.70;;
73585;SDS011;61865;50.232;18.614;2023-02-28T11:45:14;21.60;;;10.82;;
73585;SDS011;61865;50.232;18.614;2023-02-28T11:48:01;21.55;;;12.60;;
73585;SDS011;61865;50.232;18.614;2023-02-28T11:50:38;23.50;;;12.25;;
73585;SDS011;61865;50.232;18.614;2023-02-28T11:53:10;26.38;;;13.25;;
73585;SDS011;61865;50.232;18.614;2023-02-28T11:55:41;29.17;;;14.23;;
73585;SDS011;61865;50.232;18.614;2023-02-28T11:58:14;29.02;;;14.32;;
73585;SDS011;61865;50.232;18.614;2023-02-28T12:00:50;28.48;;;14.05;;
73585;SDS011;61865;50.232;18.614;2023-02-28T12:03:26;24.65;;;13.13;;
73585;SDS011;61865;50.232;18.614;2023-02-28T12:05:54;21.63;;;11.70;;
73585;SDS011;61865;50.232;18.614;2023-02-28T12:08:26;20.20;;;11.00;;
73585;SDS011;61865;50.232;18.614;2023-02-28T12:11:02;10.85;;;7.93;;
73585;SDS011;61865;50.232;18.614;2023-02-28T12:13:33;14.93;;;9.07;;
73585;SDS011;61865;50.232;18.614;2023-02-28T12:19:01;20.40;;;12.43;;
73585;SDS011;61865;50.232;18.614;2023-02-28T12:21:45;24.73;;;13.27;;
73585;SDS011;61865;50.232;18.614;2023-02-28T12:24:25;21.33;;;12.38;;
73585;SDS011;61865;50.232;18.614;2023-02-28T12:27:05;23.65;;;12.57;;
73585;SDS011;61865;50.232;18.614;2023-02-28T12:29:32;27.92;;;13.50;;
73585;SDS011;61865;50.232;18.614;2023-02-28T12:32:09;25.75;;;13.98;;
73585;SDS011;61865;50.232;18.614;2023-02-28T12:34:36;26.35;;;14.85;;
73585;SDS011;61865;50.232;18.614;2023-02-28T12:37:02;23.38;;;12.57;;
73585;SDS011;61865;50.232;18.614;2023-02-28T12:39:35;28.25;;;12.88;;
73585;SDS011;61865;50.232;18.614;2023-02-28T12:42:03;30.92;;;15.35;;
73585;SDS011;61865;50.232;18.614;2023-02-28T12:44:37;20.77;;;11.43;;
73585;SDS011;61865;50.232;18.614;2023-02-28T12:47:09;30.10;;;12.90;;
73585;SDS011;61865;50.232;18.614;2023-02-28T12:49:39;27.15;;;10.55;;
73585;SDS011;61865;50.232;18.614;2023-02-28T12:52:06;21.38;;;13.35;;
73585;SDS011;61865;50.232;18.614;2023-02-28T12:54:35;24.65;;;13.93;;
73585;SDS011;61865;50.232;18.614;2023-02-28T12:57:06;18.55;;;10.45;;
73585;SDS011;61865;50.232;18.614;2023-02-28T12:59:38;21.17;;;11.88;;
73585;SDS011;61865;50.232;18.614;2023-02-28T13:08:11;21.48;;;13.57;;
73585;SDS011;61865;50.232;18.614;2023-02-28T13:11:03;23.25;;;13.20;;
73585;SDS011;61865;50.232;18.614;2023-02-28T13:13:26;21.83;;;12.00;;
73585;SDS011;61865;50.232;18.614;2023-02-28T13:15:59;21.85;;;11.95;;
73585;SDS011;61865;50.232;18.614;2023-02-28T13:18:32;21.92;;;12.85;;
73585;SDS011;61865;50.232;18.614;2023-02-28T13:21:03;23.10;;;13.60;;
73585;SDS011;61865;50.232;18.614;2023-02-28T13:26:20;25.33;;;12.68;;
73585;SDS011;61865;50.232;18.614;2023-02-28T13:38:12;13.37;;;7.53;;
73585;SDS011;61865;50.232;18.614;2023-02-28T13:40:42;15.90;;;9.75;;
73585;SDS011;61865;50.232;18.614;2023-02-28T13:43:08;20.92;;;10.93;;
73585;SDS011;61865;50.232;18.614;2023-02-28T13:45:31;18.65;;;11.57;;
73585;SDS011;61865;50.232;18.614;2023-02-28T13:48:00;22.27;;;11.63;;
73585;SDS011;61865;50.232;18.614;2023-02-28T13:50:29;21.33;;;12.32;;
73585;SDS011;61865;50.232;18.614;2023-02-28T13:52:59;25.47;;;13.03;;
73585;SDS011;61865;50.232;18.614;2023-02-28T13:55:44;21.63;;;11.23;;
73585;SDS011;61865;50.232;18.614;2023-02-28T13:58:18;21.10;;;11.95;;
73585;SDS011;61865;50.232;18.614;2023-02-28T14:01:06;22.00;;;11.55;;
73585;SDS011;61865;50.232;18.614;2023-02-28T14:03:44;16.88;;;9.50;;
73585;SDS011;61865;50.232;18.614;2023-02-28T14:06:18;21.00;;;12.10;;
73585;SDS011;61865;50.232;18.614;2023-02-28T14:08:50;18.07;;;10.53;;
73585;SDS011;61865;50.232;18.614;2023-02-28T14:11:23;18.45;;;11.18;;
73585;SDS011;61865;50.232;18.614;2023-02-28T14:16:10;21.50;;;11.45;;
73585;SDS011;61865;50.232;18.614;2023-02-28T14:18:36;19.13;;;9.75;;
73585;SDS011;61865;50.232;18.614;2023-02-28T14:21:08;17.95;;;11.02;;
73585;SDS011;61865;50.232;18.614;2023-02-28T14:26:29;16.58;;;9.25;;
73585;SDS011;61865;50.232;18.614;2023-02-28T14:29:03;21.00;;;10.93;;
73585;SDS011;61865;50.232;18.614;2023-02-28T14:31:41;24.30;;;12.60;;
73585;SDS011;61865;50.232;18.614;2023-02-28T14:34:17;16.30;;;10.35;;
73585;SDS011;61865;50.232;18.614;2023-02-28T14:36:53;21.50;;;11.70;;
73585;SDS011;61865;50.232;18.614;2023-02-28T14:39:16;17.92;;;12.02;;
73585;SDS011;61865;50.232;18.614;2023-02-28T14:41:44;24.30;;;12.10;;
73585;SDS011;61865;50.232;18.614;2023-02-28T14:44:14;23.30;;;13.05;;
73585;SDS011;61865;50.232;18.614;2023-02-28T14:46:38;19.75;;;10.38;;